Time,TemperatureF,DewpointF,PressureIn,WindDirection,WindDirectionDegrees,WindSpeedMPH,WindSpeedGustMPH,Humidity,HourlyPrecipIn,Conditions,Clouds,dailyrainin,SoftwareType,DateUTC
2013-07-15 00:02:00,75.9,72.0,30.12,ENE,68,1.0,1.0,86,0.00,,,0.00,weatherlink.com 1.10,2013-07-15 05:02:00,
2013-07-15 00:18:00,75.5,71.0,30.12,East,84,2.0,2.0,87,0.00,,,0.00,weatherlink.com 1.10,2013-07-15 05:18:00,
2013-07-15 00:33:00,75.5,71.0,30.12,ENE,65,1.0,1.0,87,0.00,,,0.00,weatherlink.com 1.10,2013-07-15 05:33:00,
2013-07-15 00:49:00,74.9,71.0,30.12,ENE,65,0.0,1.0,88,0.00,,,0.00,weatherlink.com 1.10,2013-07-15 05:49:00,
2013-07-15 01:04:00,74.2,71.0,30.12,ENE,65,0.0,0.0,89,0.00,,,0.00,weatherlink.com 1.10,2013-07-15 06:04:00,
2013-07-15 01:18:00,74.4,71.0,30.12,ENE,65,0.0,1.0,90,0.00,,,0.00,weatherlink.com 1.10,2013-07-15 06:18:00,
2013-07-15 01:34:00,74.4,71.0,30.12,ENE,65,1.0,2.0,90,0.00,,,0.00,weatherlink.com 1.10,2013-07-15 06:34:00,
2013-07-15 01:49:00,74.2,71.0,30.12,ENE,65,1.0,1.0,90,0.00,,,0.00,weatherlink.com 1.10,2013-07-15 06:49:00,
2013-07-15 02:05:00,74.4,71.0,30.12,ENE,65,1.0,2.0,90,0.00,,,0.00,weatherlink.com 1.10,2013-07-15 07:05:00,
2013-07-15 02:19:00,74.6,72.0,30.12,ENE,74,3.0,3.0,90,0.00,,,0.00,weatherlink.com 1.10,2013-07-15 07:19:00,
2013-07-15 02:34:00,74.7,71.0,30.13,ENE,76,2.0,3.0,89,0.00,,,0.00,weatherlink.com 1.10,2013-07-15 07:34:00,
2013-07-15 02:50:00,74.4,71.0,30.12,ENE,72,1.0,3.0,90,0.00,,,0.00,weatherlink.com 1.10,2013-07-15 07:50:00,
2013-07-15 03:04:00,74.2,71.0,30.13,ENE,72,2.0,2.0,90,0.00,,,0.00,weatherlink.com 1.10,2013-07-15 08:04:00,
2013-07-15 03:20:00,74.2,71.0,30.13,ENE,73,2.0,2.0,90,0.00,,,0.00,weatherlink.com 1.10,2013-07-15 08:20:00,
2013-07-15 03:34:00,73.9,71.0,30.13,ENE,75,2.0,2.0,90,0.00,,,0.00,weatherlink.com 1.10,2013-07-15 08:34:00,
2013-07-15 03:49:00,73.8,71.0,30.13,ENE,73,2.0,2.0,90,0.00,,,0.00,weatherlink.com 1.10,2013-07-15 08:49:00,
2013-07-15 04:05:00,73.8,71.0,30.13,ENE,71,3.0,3.0,90,0.00,,,0.00,weatherlink.com 1.10,2013-07-15 09:05:00,
2013-07-15 04:19:00,73.5,71.0,30.13,ENE,57,3.0,3.0,91,0.00,,,0.00,weatherlink.com 1.10,2013-07-15 09:19:00,
2013-07-15 04:35:00,73.3,71.0,30.13,NE,56,2.0,2.0,92,0.00,,,0.00,weatherlink.com 1.10,2013-07-15 09:35:00,
2013-07-15 04:49:00,73.2,71.0,30.14,ENE,76,2.0,2.0,92,0.00,,,0.00,weatherlink.com 1.10,2013-07-15 09:49:00,
2013-07-15 05:05:00,73.1,71.0,30.14,ENE,70,0.0,2.0,93,0.00,,,0.00,weatherlink.com 1.10,2013-07-15 10:05:00,
2013-07-15 05:21:00,72.8,71.0,30.14,ENE,71,0.0,1.0,93,0.00,,,0.00,weatherlink.com 1.10,2013-07-15 10:21:00,
2013-07-15 05:35:00,72.4,71.0,30.15,ENE,76,0.0,1.0,94,0.00,,,0.00,weatherlink.com 1.10,2013-07-15 10:35:00,
2013-07-15 05:50:00,72.4,71.0,30.15,ENE,75,0.0,1.0,94,0.00,,,0.00,weatherlink.com 1.10,2013-07-15 10:50:00,
2013-07-15 06:06:00,71.0,69.0,30.15,ENE,75,0.0,0.0,94,0.00,,,0.00,weatherlink.com 1.10,2013-07-15 11:06:00,
2013-07-15 06:20:00,72.0,70.0,30.16,ENE,75,0.0,1.0,94,0.00,,,0.00,weatherlink.com 1.10,2013-07-15 11:20:00,
2013-07-15 06:35:00,73.4,71.0,30.16,ENE,77,0.0,1.0,92,0.00,,,0.00,weatherlink.com 1.10,2013-07-15 11:35:00,
2013-07-15 06:51:00,74.8,70.0,30.16,ENE,76,0.0,0.0,86,0.00,,,0.00,weatherlink.com 1.10,2013-07-15 11:51:00,
2013-07-15 07:05:00,74.5,72.0,30.17,ENE,71,2.0,4.0,90,0.00,,,0.00,weatherlink.com 1.10,2013-07-15 12:05:00,
2013-07-15 07:22:00,75.5,72.0,30.17,ENE,70,2.0,4.0,89,0.00,,,0.00,weatherlink.com 1.10,2013-07-15 12:22:00,
2013-07-15 07:36:00,75.8,72.0,30.18,ENE,63,1.0,5.0,89,0.00,,,0.00,weatherlink.com 1.10,2013-07-15 12:36:00,
2013-07-15 07:51:00,76.2,73.0,30.18,ENE,58,4.0,5.0,88,0.00,,,0.00,weatherlink.com 1.10,2013-07-15 12:51:00,
2013-07-15 08:06:00,77.5,73.0,30.18,ENE,63,2.0,4.0,86,0.00,,,0.00,weatherlink.com 1.10,2013-07-15 13:06:00,
2013-07-15 08:21:00,79.3,74.0,30.18,East,89,2.0,5.0,84,0.00,,,0.00,weatherlink.com 1.10,2013-07-15 13:21:00,
2013-07-15 08:37:00,80.8,74.0,30.18,ENE,63,1.0,3.0,80,0.00,,,0.00,weatherlink.com 1.10,2013-07-15 13:37:00,
2013-07-15 08:51:00,81.4,74.0,30.19,ENE,65,2.0,3.0,78,0.00,,,0.00,weatherlink.com 1.10,2013-07-15 13:51:00,
2013-07-15 09:07:00,82.3,74.0,30.19,NE,54,1.0,3.0,77,0.00,,,0.00,weatherlink.com 1.10,2013-07-15 14:07:00,
2013-07-15 09:22:00,83.4,74.0,30.19,SSE,167,2.0,6.0,74,0.00,,,0.00,weatherlink.com 1.10,2013-07-15 14:22:00,
2013-07-15 09:36:00,84.4,76.0,30.19,WSW,238,4.0,4.0,76,0.00,,,0.00,weatherlink.com 1.10,2013-07-15 14:36:00,
2013-07-15 10:23:00,86.5,75.0,30.20,ESE,111,1.0,4.0,68,0.00,,,0.00,weatherlink.com 1.10,2013-07-15 15:23:00,
2013-07-15 10:53:00,87.2,75.0,30.20,SSW,201,1.0,3.0,66,0.00,,,0.00,weatherlink.com 1.10,2013-07-15 15:53:00,
2013-07-15 11:07:00,87.5,75.0,30.20,ENE,70,2.0,4.0,66,0.00,,,0.00,weatherlink.com 1.10,2013-07-15 16:07:00,
2013-07-15 11:23:00,87.5,74.0,30.20,SE,146,0.0,7.0,65,0.00,,,0.00,weatherlink.com 1.10,2013-07-15 16:23:00,
2013-07-15 11:38:00,86.9,75.0,30.20,SW,219,2.0,3.0,68,0.00,,,0.00,weatherlink.com 1.10,2013-07-15 16:38:00,
2013-07-15 11:52:00,88.6,74.0,30.20,ENE,77,1.0,4.0,63,0.00,,,0.00,weatherlink.com 1.10,2013-07-15 16:52:00,
2013-07-15 12:22:00,86.9,75.0,30.19,ENE,64,5.0,7.0,67,0.00,,,0.00,weatherlink.com 1.10,2013-07-15 17:22:00,
2013-07-15 12:38:00,88.6,76.0,30.19,East,86,3.0,3.0,66,0.00,,,0.00,weatherlink.com 1.10,2013-07-15 17:38:00,
2013-07-15 13:08:00,87.8,75.0,30.19,East,94,2.0,6.0,66,0.00,,,0.00,weatherlink.com 1.10,2013-07-15 18:08:00,
2013-07-15 13:23:00,90.9,74.0,30.18,ENE,73,0.0,5.0,58,0.00,,,0.00,weatherlink.com 1.10,2013-07-15 18:23:00,
2013-07-15 13:39:00,87.5,76.0,30.18,ENE,75,2.0,7.0,68,0.00,,,0.00,weatherlink.com 1.10,2013-07-15 18:39:00,
2013-07-15 14:09:00,87.2,76.0,30.17,NE,41,9.0,9.0,70,0.00,,,0.00,weatherlink.com 1.10,2013-07-15 19:09:00,
2013-07-15 14:24:00,87.1,75.0,30.17,ENE,74,3.0,8.0,68,0.00,,,0.00,weatherlink.com 1.10,2013-07-15 19:24:00,
2013-07-15 14:38:00,89.8,75.0,30.16,ENE,74,1.0,11.0,61,0.00,,,0.00,weatherlink.com 1.10,2013-07-15 19:38:00,
2013-07-15 15:10:00,89.0,75.0,30.16,ESE,106,0.0,6.0,64,0.00,,,0.00,weatherlink.com 1.10,2013-07-15 20:10:00,
2013-07-15 15:24:00,88.7,75.0,30.16,ENE,64,7.0,9.0,64,0.00,,,0.00,weatherlink.com 1.10,2013-07-15 20:24:00,
2013-07-15 15:38:00,88.1,76.0,30.15,SW,233,1.0,7.0,68,0.00,,,0.00,weatherlink.com 1.10,2013-07-15 20:38:00,
2013-07-15 15:54:00,87.8,76.0,30.15,ENE,72,6.0,9.0,68,0.00,,,0.00,weatherlink.com 1.10,2013-07-15 20:54:00,
2013-07-15 16:24:00,87.8,77.0,30.14,ENE,65,7.0,9.0,70,0.00,,,0.00,weatherlink.com 1.10,2013-07-15 21:24:00,
2013-07-15 16:39:00,87.5,77.0,30.14,ENE,73,3.0,9.0,71,0.00,,,0.00,weatherlink.com 1.10,2013-07-15 21:39:00,
2013-07-15 16:55:00,89.4,76.0,30.14,ENE,68,6.0,7.0,64,0.00,,,0.00,weatherlink.com 1.10,2013-07-15 21:55:00,
2013-07-15 17:09:00,88.6,75.0,30.13,East,79,4.0,6.0,64,0.00,,,0.00,weatherlink.com 1.10,2013-07-15 22:09:00,
2013-07-15 17:24:00,88.1,76.0,30.13,East,84,3.0,4.0,67,0.00,,,0.00,weatherlink.com 1.10,2013-07-15 22:24:00,
2013-07-15 17:40:00,88.7,76.0,30.14,South,189,0.0,2.0,67,0.00,,,0.00,weatherlink.com 1.10,2013-07-15 22:40:00,
2013-07-15 17:54:00,88.5,75.0,30.13,East,82,1.0,3.0,64,0.00,,,0.00,weatherlink.com 1.10,2013-07-15 22:54:00,
2013-07-15 18:10:00,90.3,76.0,30.13,SE,139,2.0,3.0,63,0.00,,,0.00,weatherlink.com 1.10,2013-07-15 23:10:00,
2013-07-15 18:25:00,90.1,76.0,30.14,WSW,252,0.0,4.0,63,0.00,,,0.00,weatherlink.com 1.10,2013-07-15 23:25:00,
2013-07-15 18:41:00,90.2,76.0,30.14,ESE,111,1.0,3.0,63,0.00,,,0.00,weatherlink.com 1.10,2013-07-15 23:41:00,
2013-07-15 18:54:00,88.3,76.0,30.13,East,91,0.0,2.0,67,0.00,,,0.00,weatherlink.com 1.10,2013-07-15 23:54:00,
2013-07-15 19:10:00,86.8,76.0,30.13,ENE,59,1.0,4.0,70,0.00,,,0.00,weatherlink.com 1.10,2013-07-16 00:10:00,
2013-07-15 19:25:00,85.3,75.0,30.13,ENE,63,1.0,4.0,72,0.00,,,0.00,weatherlink.com 1.10,2013-07-16 00:25:00,
2013-07-15 19:41:00,85.0,75.0,30.12,ENE,78,1.0,1.0,73,0.00,,,0.00,weatherlink.com 1.10,2013-07-16 00:41:00,
2013-07-15 19:55:00,84.2,75.0,30.13,SE,134,0.0,1.0,74,0.00,,,0.00,weatherlink.com 1.10,2013-07-16 00:55:00,
2013-07-15 20:11:00,83.7,75.0,30.14,SE,134,1.0,1.0,75,0.00,,,0.00,weatherlink.com 1.10,2013-07-16 01:11:00,
2013-07-15 20:26:00,82.4,75.0,30.13,East,101,0.0,1.0,77,0.00,,,0.00,weatherlink.com 1.10,2013-07-16 01:26:00,
2013-07-15 20:40:00,82.0,75.0,30.14,ESE,102,0.0,1.0,78,0.00,,,0.00,weatherlink.com 1.10,2013-07-16 01:40:00,
2013-07-15 20:56:00,81.3,75.0,30.14,East,101,0.0,1.0,81,0.00,,,0.00,weatherlink.com 1.10,2013-07-16 01:56:00,
2013-07-15 21:10:00,80.6,75.0,30.15,ESE,102,0.0,0.0,82,0.00,,,0.00,weatherlink.com 1.10,2013-07-16 02:10:00,
2013-07-15 21:26:00,80.0,75.0,30.16,SSE,165,0.0,1.0,84,0.00,,,0.00,weatherlink.com 1.10,2013-07-16 02:26:00,
2013-07-15 21:56:00,79.2,75.0,30.17,SSE,165,0.0,0.0,86,0.00,,,0.00,weatherlink.com 1.10,2013-07-16 02:56:00,
2013-07-15 22:26:00,78.5,74.0,30.18,South,174,0.0,0.0,87,0.00,,,0.00,weatherlink.com 1.10,2013-07-16 03:26:00,
2013-07-15 22:42:00,78.4,75.0,30.19,South,174,0.0,1.0,88,0.00,,,0.00,weatherlink.com 1.10,2013-07-16 03:42:00,
2013-07-15 22:56:00,78.1,74.0,30.19,SE,127,0.0,0.0,88,0.00,,,0.00,weatherlink.com 1.10,2013-07-16 03:56:00,
2013-07-15 23:12:00,77.9,75.0,30.20,SE,127,0.0,0.0,89,0.00,,,0.00,weatherlink.com 1.10,2013-07-16 04:12:00,
2013-07-15 23:26:00,77.5,74.0,30.20,SE,127,0.0,0.0,89,0.00,,,0.00,weatherlink.com 1.10,2013-07-16 04:26:00,
2013-07-15 23:42:00,77.4,74.0,30.20,WNW,298,0.0,1.0,89,0.00,,,0.00,weatherlink.com 1.10,2013-07-16 04:42:00,
2013-07-15 23:57:00,77.2,74.0,30.20,WNW,300,0.0,0.0,90,0.00,,,0.00,weatherlink.com 1.10,2013-07-16 04:57:00,